createdAt,value
2022-09-26T00:01:36.731Z,7.50
2022-09-26T00:04:23.014Z,7.50
2022-09-26T00:06:52.796Z,7.40
2022-09-26T00:09:21.174Z,7.40
2022-09-26T00:11:48.727Z,7.40
2022-09-26T00:14:25.315Z,7.30
2022-09-26T00:16:52.817Z,7.20
2022-09-26T00:19:20.077Z,7.20
2022-09-26T00:21:47.430Z,7.20
2022-09-26T00:24:14.820Z,7.20
2022-09-26T00:26:41.508Z,7.20
2022-09-26T00:29:12.011Z,7.10
2022-09-26T00:31:44.086Z,7.10
2022-09-26T00:34:16.987Z,7.00
2022-09-26T00:36:44.037Z,7.00
2022-09-26T00:39:14.580Z,7.00
2022-09-26T00:41:41.644Z,7.00
2022-09-26T00:44:40.055Z,6.90
2022-09-26T00:47:20.300Z,6.90
2022-09-26T00:49:49.652Z,6.90
2022-09-26T00:52:23.821Z,6.90
2022-09-26T00:54:54.784Z,6.90
2022-09-26T00:57:48.468Z,7.00
2022-09-26T01:00:15.674Z,7.00
2022-09-26T01:02:44.704Z,7.00
2022-09-26T01:05:15.902Z,7.00
2022-09-26T01:07:43.145Z,7.00
2022-09-26T01:10:10.247Z,7.00
2022-09-26T01:12:38.068Z,7.00
2022-09-26T01:15:08.953Z,7.00
2022-09-26T01:17:39.191Z,7.00
2022-09-26T01:20:31.396Z,7.10
2022-09-26T01:23:22.928Z,7.20
2022-09-26T01:26:28.409Z,7.20
2022-09-26T01:29:06.818Z,7.30
2022-09-26T01:32:39.580Z,7.30
2022-09-26T01:35:19.385Z,7.40
2022-09-26T01:38:12.400Z,7.50
2022-09-26T01:41:03.366Z,7.60
2022-09-26T01:43:54.878Z,7.70
2022-09-26T01:46:29.211Z,7.60
2022-09-26T01:49:07.161Z,7.50
2022-09-26T01:52:19.595Z,7.50
2022-09-26T01:55:23.794Z,7.50
2022-09-26T01:58:03.427Z,7.50
2022-09-26T02:00:31.977Z,7.60
2022-09-26T02:03:00.440Z,7.60
2022-09-26T02:05:36.586Z,7.50
2022-09-26T02:08:20.894Z,7.50
2022-09-26T02:11:05.244Z,7.40
2022-09-26T02:13:37.765Z,7.30
2022-09-26T02:16:16.249Z,7.20
2022-09-26T02:18:52.397Z,7.10
2022-09-26T02:21:24.029Z,7.10
2022-09-26T02:23:53.371Z,7.00
2022-09-26T02:26:20.233Z,7.00
2022-09-26T02:28:47.505Z,7.00
2022-09-26T02:31:21.888Z,7.00
2022-09-26T02:33:50.487Z,7.00
2022-09-26T02:36:19.956Z,7.00
2022-09-26T02:38:47.117Z,7.00
2022-09-26T02:41:39.637Z,7.00
2022-09-26T02:44:48.209Z,7.00
2022-09-26T02:48:01.232Z,6.90
2022-09-26T02:50:54.722Z,6.90
2022-09-26T02:53:52.324Z,6.90
2022-09-26T02:56:36.873Z,6.80
2022-09-26T02:59:23.613Z,6.90
2022-09-26T03:02:19.857Z,6.80
2022-09-26T03:04:57.828Z,6.80
2022-09-26T03:07:36.633Z,6.80
2022-09-26T03:10:07.485Z,6.70
2022-09-26T03:12:36.065Z,6.70
2022-09-26T03:15:06.202Z,6.80
2022-09-26T03:17:36.222Z,6.70
2022-09-26T03:20:11.100Z,6.80
2022-09-26T03:22:39.917Z,6.70
2022-09-26T03:25:09.964Z,6.80
2022-09-26T03:27:38.334Z,6.80
2022-09-26T03:30:06.192Z,6.90
2022-09-26T03:32:32.844Z,6.90
2022-09-26T03:34:59.480Z,7.00
2022-09-26T03:37:26.173Z,7.00
2022-09-26T03:39:52.821Z,7.00
2022-09-26T03:42:19.565Z,7.10
2022-09-26T03:44:46.266Z,7.10
2022-09-26T03:47:14.973Z,7.10
2022-09-26T03:49:41.636Z,7.20
2022-09-26T03:52:11.683Z,7.20
2022-09-26T03:54:38.684Z,7.30
2022-09-26T03:57:05.373Z,7.30
2022-09-26T03:59:31.984Z,7.30
2022-09-26T04:01:58.636Z,7.30
2022-09-26T04:04:25.369Z,7.30
2022-09-26T04:06:52.065Z,7.30
2022-09-26T04:09:19.107Z,7.30
2022-09-26T04:11:46.575Z,7.30
2022-09-26T04:14:13.314Z,7.40
2022-09-26T04:16:40.067Z,7.30
2022-09-26T04:19:06.917Z,7.30
2022-09-26T04:21:35.329Z,7.30
2022-09-26T04:24:04.483Z,7.30
2022-09-26T04:26:31.152Z,7.30
2022-09-26T04:28:58.952Z,7.30
2022-09-26T04:31:27.749Z,7.30
2022-09-26T04:33:55.295Z,7.40
2022-09-26T04:36:22.441Z,7.40
2022-09-26T04:38:49.344Z,7.60
2022-09-26T04:41:20.051Z,7.80
2022-09-26T04:43:46.893Z,7.70
2022-09-26T04:46:23.751Z,7.70
2022-09-26T04:48:55.418Z,7.70
2022-09-26T04:51:24.311Z,7.70
2022-09-26T04:53:51.998Z,7.70
2022-09-26T04:56:21.279Z,7.70
2022-09-26T04:58:48.424Z,7.70
2022-09-26T05:01:20.160Z,7.70
2022-09-26T05:03:47.488Z,7.70
2022-09-26T05:06:17.446Z,7.60
2022-09-26T05:08:46.330Z,7.60
2022-09-26T05:11:15.581Z,7.60
2022-09-26T05:13:43.720Z,7.50
2022-09-26T05:16:14.392Z,7.50
2022-09-26T05:18:41.745Z,7.60
2022-09-26T05:21:08.874Z,7.50
2022-09-26T05:23:56.069Z,7.40
2022-09-26T05:26:43.038Z,7.40
2022-09-26T05:29:10.478Z,7.40
2022-09-26T05:31:37.971Z,7.40
2022-09-26T05:34:07.612Z,7.40
2022-09-26T05:36:34.480Z,7.50
2022-09-26T05:39:01.767Z,7.40
2022-09-26T05:41:31.058Z,7.50
2022-09-26T05:43:58.426Z,7.40
2022-09-26T05:46:28.042Z,7.50
2022-09-26T05:48:55.500Z,7.50
2022-09-26T05:51:23.258Z,7.50
2022-09-26T05:53:50.391Z,7.40
2022-09-26T05:56:19.621Z,7.50
2022-09-26T05:58:47.191Z,7.50
2022-09-26T06:01:17.039Z,7.70
2022-09-26T06:03:45.943Z,7.80
2022-09-26T06:06:15.903Z,7.90
2022-09-26T06:08:43.812Z,8.00
2022-09-26T06:11:17.785Z,8.20
2022-09-26T06:13:45.724Z,8.10
2022-09-26T06:16:19.409Z,8.10
2022-09-26T06:18:48.176Z,8.10
2022-09-26T06:21:17.414Z,8.10
2022-09-26T06:23:47.086Z,8.00
2022-09-26T06:26:20.988Z,8.10
2022-09-26T06:28:49.884Z,8.10
2022-09-26T06:31:18.705Z,8.10
2022-09-26T06:33:53.152Z,8.10
2022-09-26T06:36:21.861Z,8.00
2022-09-26T06:38:49.103Z,8.00
2022-09-26T06:41:16.307Z,8.00
2022-09-26T06:43:45.142Z,8.00
2022-09-26T06:46:15.857Z,8.10
2022-09-26T06:48:45.655Z,8.20
2022-09-26T06:51:15.196Z,8.40
2022-09-26T06:53:44.475Z,8.60
2022-09-26T06:56:11.705Z,8.80
2022-09-26T06:58:39.118Z,9.10
2022-09-26T07:01:09.898Z,9.40
2022-09-26T07:03:37.904Z,9.90
2022-09-26T07:06:07.404Z,10.40
2022-09-26T07:09:01.051Z,10.90
2022-09-26T07:11:38.284Z,11.70
2022-09-26T07:14:08.005Z,13.50
2022-09-26T07:16:34.723Z,15.60
2022-09-26T07:19:01.324Z,16.90
2022-09-26T07:21:27.900Z,17.80
2022-09-26T07:23:57.357Z,19.30
2022-09-26T07:26:24.059Z,21.00
2022-09-26T07:28:54.962Z,22.50
2022-09-26T07:31:23.518Z,24.10
2022-09-26T07:33:50.206Z,25.20
2022-09-26T07:36:18.338Z,26.20
2022-09-26T07:38:48.419Z,26.80
2022-09-26T07:41:15.532Z,27.40
2022-09-26T07:44:30.235Z,27.90
2022-09-26T07:46:47.651Z,28.10
2022-09-26T07:49:32.791Z,27.50
2022-09-26T07:52:00.167Z,27.70
2022-09-26T07:54:26.902Z,27.40
2022-09-26T07:56:55.089Z,26.80
2022-09-26T07:59:22.773Z,27.20
2022-09-26T08:01:49.650Z,27.40
2022-09-26T08:04:18.556Z,28.70
2022-09-26T08:06:45.157Z,28.60
2022-09-26T08:11:40.802Z,28.70
2022-09-26T08:14:07.545Z,28.80
2022-09-26T08:16:34.369Z,27.50
2022-09-26T08:19:01.581Z,25.50
2022-09-26T08:21:28.227Z,24.50
2022-09-26T08:23:55.617Z,24.10
2022-09-26T08:26:24.569Z,25.10
2022-09-26T08:28:51.352Z,25.70
2022-09-26T08:31:18.551Z,26.10
2022-09-26T08:33:45.302Z,25.80
2022-09-26T08:36:15.152Z,26.30
2022-09-26T08:38:49.896Z,26.60
2022-09-26T08:41:49.758Z,25.50
2022-09-26T08:44:45.529Z,26.00
2022-09-26T08:47:42.664Z,27.00
2022-09-26T08:50:50.736Z,27.80
2022-09-26T08:53:24.063Z,27.70
2022-09-26T08:55:53.567Z,28.00
2022-09-26T08:58:37.779Z,28.30
2022-09-26T09:01:14.190Z,28.90
2022-09-26T09:03:57.740Z,28.50
2022-09-26T09:06:28.181Z,27.30
2022-09-26T09:08:56.570Z,27.30
2022-09-26T09:11:50.237Z,26.50
2022-09-26T09:14:36.181Z,25.40
2022-09-26T09:17:20.337Z,22.90
2022-09-26T09:20:32.950Z,21.50
2022-09-26T09:23:20.038Z,20.30
2022-09-26T09:29:27.426Z,18.80
2022-09-26T09:31:56.755Z,18.10
2022-09-26T09:34:39.020Z,17.60
2022-09-26T09:37:18.321Z,17.40
2022-09-26T09:39:48.885Z,17.20
2022-09-26T09:42:40.632Z,17.10
2022-09-26T09:45:23.803Z,17.40
2022-09-26T09:47:50.397Z,17.20
2022-09-26T09:50:41.712Z,16.90
2022-09-26T09:53:55.745Z,16.80
2022-09-26T09:57:16.511Z,16.80
2022-09-26T10:00:15.869Z,16.80
2022-09-26T10:03:02.035Z,16.70
2022-09-26T10:05:51.536Z,16.70
2022-09-26T10:08:35.780Z,16.60
2022-09-26T10:11:30.720Z,16.70
2022-09-26T10:14:07.075Z,17.00
2022-09-26T10:16:35.426Z,16.70
2022-09-26T10:19:07.935Z,16.60
2022-09-26T10:21:48.401Z,16.60
2022-09-26T10:24:45.351Z,16.40
2022-09-26T10:27:36.804Z,16.30
2022-09-26T10:30:30.252Z,16.50
2022-09-26T10:33:01.853Z,16.30
2022-09-26T10:35:46.053Z,16.00
2022-09-26T10:38:27.810Z,16.10
2022-09-26T10:41:01.268Z,16.10
2022-09-26T10:43:37.876Z,16.20
2022-09-26T10:46:15.540Z,16.10
2022-09-26T10:48:53.697Z,15.90
2022-09-26T10:51:37.921Z,15.70
2022-09-26T10:54:17.015Z,15.70
2022-09-26T10:56:48.589Z,15.60
2022-09-26T10:59:18.293Z,15.40
2022-09-26T11:01:51.253Z,15.40
2022-09-26T11:04:41.808Z,15.20
2022-09-26T11:07:24.378Z,14.70
2022-09-26T11:09:59.881Z,14.60
2022-09-26T11:12:35.211Z,14.50
2022-09-26T11:15:08.851Z,14.50
2022-09-26T11:17:51.482Z,14.50
2022-09-26T11:20:50.548Z,14.60
2022-09-26T11:23:37.371Z,14.50
2022-09-26T11:26:29.704Z,14.60
2022-09-26T11:29:34.291Z,14.50
2022-09-26T11:32:01.299Z,14.60
2022-09-26T11:34:31.295Z,14.70
2022-09-26T11:37:30.786Z,14.90
2022-09-26T11:40:09.974Z,14.90
2022-09-26T11:42:59.890Z,15.00
2022-09-26T11:45:47.620Z,15.10
2022-09-26T11:48:31.512Z,15.10
2022-09-26T11:51:52.244Z,15.10
2022-09-26T11:54:42.677Z,15.20
2022-09-26T11:57:45.285Z,15.00
2022-09-26T12:00:15.909Z,14.70
2022-09-26T12:03:33.167Z,14.60
2022-09-26T12:06:22.730Z,14.40
2022-09-26T12:09:24.252Z,14.40
2022-09-26T12:12:19.551Z,14.50
2022-09-26T12:14:54.953Z,14.60
2022-09-26T12:17:54.744Z,14.70
2022-09-26T12:20:37.528Z,14.80
2022-09-26T12:23:31.081Z,15.00
2022-09-26T12:26:16.895Z,15.10
2022-09-26T12:29:28.352Z,15.30
2022-09-26T12:32:23.575Z,15.40
2022-09-26T12:35:29.022Z,15.50
2022-09-26T12:38:32.636Z,15.50
2022-09-26T12:41:23.151Z,15.40
2022-09-26T12:44:31.181Z,15.30
2022-09-26T12:47:21.981Z,15.20
2022-09-26T12:50:24.779Z,15.20
2022-09-26T12:53:28.507Z,15.00
2022-09-26T12:56:07.377Z,14.80
2022-09-26T12:59:22.890Z,14.60
2022-09-26T13:02:00.464Z,14.60
2022-09-26T13:05:14.838Z,14.60
2022-09-26T13:08:19.600Z,14.60
2022-09-26T13:11:05.086Z,14.50
2022-09-26T13:14:14.548Z,14.40
2022-09-26T13:17:11.315Z,14.40
2022-09-26T13:19:54.267Z,14.40
2022-09-26T13:23:03.011Z,14.40
2022-09-26T13:26:14.087Z,14.40
2022-09-26T13:29:22.968Z,14.40
2022-09-26T13:31:59.710Z,14.30
2022-09-26T13:34:38.846Z,14.20
2022-09-26T13:37:22.561Z,14.00
2022-09-26T13:40:16.242Z,14.00
2022-09-26T13:43:02.706Z,13.90
2022-09-26T13:45:53.066Z,13.60
2022-09-26T13:48:49.926Z,13.60
2022-09-26T13:51:49.409Z,13.60
2022-09-26T13:54:53.888Z,13.60
2022-09-26T13:57:35.430Z,13.60
2022-09-26T14:00:25.672Z,13.70
2022-09-26T14:03:10.165Z,13.70
2022-09-26T14:05:46.359Z,13.80
2022-09-26T14:08:51.166Z,13.70
2022-09-26T14:11:32.506Z,13.70
2022-09-26T14:14:21.273Z,13.70
2022-09-26T14:16:56.668Z,13.60
2022-09-26T14:19:55.536Z,13.60
2022-09-26T14:22:25.538Z,13.50
2022-09-26T14:24:53.678Z,13.50
2022-09-26T14:27:48.241Z,13.60
2022-09-26T14:30:29.144Z,13.70
2022-09-26T14:33:11.003Z,13.80
2022-09-26T14:35:38.876Z,13.90
2022-09-26T14:38:15.401Z,14.10
2022-09-26T14:40:57.871Z,14.20
2022-09-26T14:43:37.231Z,14.40
2022-09-26T14:46:13.681Z,14.50
2022-09-26T14:48:42.745Z,14.50
2022-09-26T14:51:15.928Z,14.50
2022-09-26T14:53:48.003Z,14.40
2022-09-26T14:56:27.062Z,14.30
2022-09-26T14:58:54.977Z,14.30
2022-09-26T15:01:37.417Z,14.20
2022-09-26T15:04:19.160Z,14.10
2022-09-26T15:07:01.931Z,14.00
2022-09-26T15:09:55.163Z,14.00
2022-09-26T15:12:29.790Z,13.90
2022-09-26T15:15:16.115Z,13.80
2022-09-26T15:17:58.187Z,13.60
2022-09-26T15:21:08.894Z,13.60
2022-09-26T15:23:51.207Z,13.60
2022-09-26T15:26:25.566Z,13.70
2022-09-26T15:28:54.572Z,13.80
2022-09-26T15:31:35.779Z,13.70
2022-09-26T15:34:13.257Z,13.70
2022-09-26T15:36:40.931Z,13.70
2022-09-26T15:39:32.703Z,13.60
2022-09-26T15:42:20.972Z,13.60
2022-09-26T15:44:55.246Z,13.60
2022-09-26T15:47:31.256Z,13.60
2022-09-26T15:50:10.281Z,13.50
2022-09-26T15:52:46.397Z,13.40
2022-09-26T15:55:24.576Z,13.30
2022-09-26T15:57:55.213Z,13.30
2022-09-26T16:00:21.977Z,13.40
2022-09-26T16:02:48.983Z,13.40
2022-09-26T16:05:16.325Z,13.40
2022-09-26T16:07:49.165Z,13.40
2022-09-26T16:10:30.287Z,13.40
2022-09-26T16:13:00.310Z,13.40
2022-09-26T16:15:31.199Z,13.30
2022-09-26T16:17:58.708Z,13.40
2022-09-26T16:20:29.063Z,13.30
2022-09-26T16:23:04.717Z,13.20
2022-09-26T16:25:53.296Z,13.20
2022-09-26T16:28:39.317Z,13.20
2022-09-26T16:31:08.258Z,13.20
2022-09-26T16:33:39.059Z,13.10
2022-09-26T16:36:21.551Z,13.10
2022-09-26T16:38:56.931Z,13.10
2022-09-26T16:42:00.641Z,13.10
2022-09-26T16:44:36.868Z,13.00
2022-09-26T16:47:29.707Z,13.00
2022-09-26T16:49:56.358Z,13.00
2022-09-26T16:52:36.341Z,12.90
2022-09-26T16:55:06.057Z,12.80
2022-09-26T16:57:39.867Z,12.90
2022-09-26T17:00:36.408Z,12.80
2022-09-26T17:03:16.304Z,12.70
2022-09-26T17:05:42.967Z,12.60
2022-09-26T17:08:10.862Z,12.70
2022-09-26T17:10:38.072Z,12.60
2022-09-26T17:13:05.885Z,12.60
2022-09-26T17:15:34.657Z,12.50
2022-09-26T17:18:05.918Z,12.50
2022-09-26T17:20:32.560Z,12.50
2022-09-26T17:23:08.005Z,12.40
2022-09-26T17:25:52.976Z,12.40
2022-09-26T17:28:33.767Z,12.40
2022-09-26T17:31:06.212Z,12.30
2022-09-26T17:33:37.797Z,12.20
2022-09-26T17:36:05.020Z,12.10
2022-09-26T17:38:34.551Z,12.10
2022-09-26T17:41:03.545Z,12.10
2022-09-26T17:43:30.896Z,12.10
2022-09-26T17:45:58.302Z,12.00
2022-09-26T17:48:28.684Z,12.10
2022-09-26T17:50:56.202Z,12.10
2022-09-26T17:53:25.373Z,12.10
2022-09-26T17:55:53.050Z,12.00
2022-09-26T17:58:19.862Z,12.00
2022-09-26T18:00:50.157Z,11.90
2022-09-26T18:03:23.389Z,11.90
2022-09-26T18:05:50.610Z,11.90
2022-09-26T18:08:21.546Z,11.90
2022-09-26T18:10:55.099Z,11.90
2022-09-26T18:13:26.455Z,11.90
2022-09-26T18:15:55.381Z,11.90
2022-09-26T18:18:25.365Z,11.90
2022-09-26T18:20:53.849Z,11.90
2022-09-26T18:23:26.272Z,11.90
2022-09-26T18:25:58.922Z,11.90
2022-09-26T18:28:26.281Z,11.80
2022-09-26T18:30:58.357Z,11.80
2022-09-26T18:33:27.779Z,11.80
2022-09-26T18:35:55.338Z,11.80
2022-09-26T18:38:22.208Z,11.70
2022-09-26T18:40:58.737Z,11.70
2022-09-26T18:43:31.735Z,11.70
2022-09-26T18:45:59.384Z,11.70
2022-09-26T18:48:32.889Z,11.70
2022-09-26T18:51:00.368Z,11.70
2022-09-26T18:53:30.203Z,11.70
2022-09-26T18:56:15.658Z,11.70
2022-09-26T18:58:42.449Z,11.70
2022-09-26T19:01:22.812Z,11.70
2022-09-26T19:03:49.828Z,11.70
2022-09-26T19:06:20.689Z,11.60
2022-09-26T19:08:51.317Z,11.60
2022-09-26T19:11:23.882Z,11.60
2022-09-26T19:13:56.448Z,11.60
2022-09-26T19:16:24.556Z,11.50
2022-09-26T19:18:51.789Z,11.50
2022-09-26T19:21:41.202Z,11.40
2022-09-26T19:24:22.914Z,11.30
2022-09-26T19:27:05.961Z,11.30
2022-09-26T19:29:40.597Z,11.30
2022-09-26T19:32:17.223Z,11.30
2022-09-26T19:34:53.596Z,11.20
2022-09-26T19:37:20.519Z,11.10
2022-09-26T19:39:47.349Z,11.20
2022-09-26T19:42:15.744Z,11.10
2022-09-26T19:44:43.058Z,11.10
2022-09-26T19:47:22.254Z,11.10
2022-09-26T19:49:51.798Z,11.10
2022-09-26T19:52:20.849Z,11.10
2022-09-26T19:54:48.723Z,11.10
2022-09-26T19:57:18.178Z,11.10
2022-09-26T19:59:46.197Z,11.10
2022-09-26T20:02:22.902Z,11.10
2022-09-26T20:04:51.490Z,11.10
2022-09-26T20:07:19.852Z,11.00
2022-09-26T20:09:47.541Z,11.00
2022-09-26T20:12:14.781Z,11.00
2022-09-26T20:14:41.653Z,11.00
2022-09-26T20:17:23.320Z,10.90
2022-09-26T20:19:53.149Z,11.00
2022-09-26T20:22:24.432Z,11.00
2022-09-26T20:24:55.417Z,11.00
2022-09-26T20:27:28.471Z,10.90
2022-09-26T20:30:15.014Z,10.90
2022-09-26T20:32:42.141Z,10.90
2022-09-26T20:35:15.246Z,10.90
2022-09-26T20:37:42.754Z,10.80
2022-09-26T20:40:22.624Z,10.80
2022-09-26T20:42:58.511Z,10.80
2022-09-26T20:45:36.892Z,10.80
2022-09-26T20:48:05.814Z,10.80
2022-09-26T20:50:38.378Z,10.90
2022-09-26T20:53:18.018Z,10.90
2022-09-26T20:55:46.114Z,10.90
2022-09-26T20:58:13.251Z,10.80
2022-09-26T21:00:41.723Z,10.80
2022-09-26T21:03:11.394Z,10.80
2022-09-26T21:05:39.022Z,10.80
2022-09-26T21:08:18.971Z,10.70
2022-09-26T21:10:45.682Z,10.80
2022-09-26T21:13:12.407Z,10.70
2022-09-26T21:15:43.023Z,10.70
2022-09-26T21:18:25.703Z,10.70
2022-09-26T21:20:53.779Z,10.60
2022-09-26T21:23:22.300Z,10.70
2022-09-26T21:25:49.117Z,10.70
2022-09-26T21:28:26.819Z,10.70
2022-09-26T21:30:57.734Z,10.80
2022-09-26T21:33:24.715Z,10.80
2022-09-26T21:35:52.203Z,10.80
2022-09-26T21:38:20.694Z,10.70
2022-09-26T21:40:54.310Z,10.70
2022-09-26T21:43:26.747Z,10.80
2022-09-26T21:45:53.526Z,10.80
2022-09-26T21:48:20.311Z,10.80
2022-09-26T21:50:58.317Z,10.80
2022-09-26T21:54:06.084Z,10.70
2022-09-26T21:56:46.564Z,10.70
2022-09-26T21:59:13.279Z,10.80
2022-09-26T22:01:40.042Z,10.70
2022-09-26T22:04:06.786Z,10.70
2022-09-26T22:06:33.764Z,10.70
2022-09-26T22:09:00.434Z,10.70
2022-09-26T22:11:27.258Z,10.70
2022-09-26T22:13:53.975Z,10.70
2022-09-26T22:16:20.712Z,10.80
2022-09-26T22:18:47.527Z,10.80
2022-09-26T22:21:14.211Z,10.80
2022-09-26T22:23:41.303Z,10.80
2022-09-26T22:26:08.319Z,10.80
2022-09-26T22:28:35.600Z,10.90
2022-09-26T22:31:05.667Z,10.80
2022-09-26T22:33:33.006Z,10.70
2022-09-26T22:36:00.073Z,10.70
2022-09-26T22:38:26.812Z,10.70
2022-09-26T22:41:05.199Z,10.90
2022-09-26T22:43:34.163Z,10.80
2022-09-26T22:46:07.571Z,10.80
2022-09-26T22:48:41.602Z,10.80
2022-09-26T22:51:09.016Z,10.90
2022-09-26T22:53:38.615Z,10.90
2022-09-26T22:56:08.116Z,10.80
2022-09-26T22:58:46.811Z,10.80
2022-09-26T23:01:17.644Z,10.80
2022-09-26T23:03:44.490Z,10.80
2022-09-26T23:06:11.988Z,10.80
2022-09-26T23:08:41.459Z,10.70
2022-09-26T23:11:11.372Z,10.70
2022-09-26T23:13:39.419Z,10.70
2022-09-26T23:16:11.731Z,10.60
2022-09-26T23:18:41.344Z,10.70
2022-09-26T23:21:15.275Z,10.70
2022-09-26T23:23:44.937Z,10.60
2022-09-26T23:26:21.483Z,10.60
2022-09-26T23:28:51.907Z,10.60
2022-09-26T23:31:19.516Z,10.60
2022-09-26T23:33:47.047Z,10.60
2022-09-26T23:36:14.413Z,10.50
2022-09-26T23:38:41.602Z,10.60
2022-09-26T23:41:10.477Z,10.60
2022-09-26T23:43:37.329Z,10.60
2022-09-26T23:46:05.014Z,10.60
2022-09-26T23:48:32.180Z,10.60
2022-09-26T23:50:59.122Z,10.60
2022-09-26T23:53:26.215Z,10.60
2022-09-26T23:55:53.314Z,10.60
2022-09-26T23:58:20.200Z,10.60
